createdAt,value
2018-09-15T00:00:48.055Z,0.00
2018-09-15T00:01:48.155Z,0.00
2018-09-15T00:02:48.248Z,0.00
2018-09-15T00:03:48.341Z,0.00
2018-09-15T00:04:48.437Z,0.00
2018-09-15T00:05:48.530Z,0.00
2018-09-15T00:06:48.624Z,0.00
2018-09-15T00:07:48.718Z,0.00
2018-09-15T00:08:48.816Z,0.00
2018-09-15T00:09:48.911Z,0.00
2018-09-15T00:10:49.004Z,0.00
2018-09-15T00:11:49.100Z,0.00
2018-09-15T00:12:49.195Z,0.00
2018-09-15T00:13:49.290Z,0.00
2018-09-15T00:14:49.387Z,0.00
2018-09-15T00:15:49.480Z,0.00
2018-09-15T00:16:49.573Z,0.00
2018-09-15T00:17:49.703Z,0.00
2018-09-15T00:18:49.763Z,0.00
2018-09-15T00:19:49.860Z,0.00
2018-09-15T00:20:49.955Z,0.00
2018-09-15T00:21:50.049Z,0.00
2018-09-15T00:22:50.147Z,0.00
2018-09-15T00:23:50.240Z,0.00
2018-09-15T00:24:50.334Z,0.00
2018-09-15T00:25:50.433Z,0.00
2018-09-15T00:26:50.524Z,0.00
2018-09-15T00:27:50.619Z,0.00
2018-09-15T00:28:50.704Z,0.00
2018-09-15T00:29:50.797Z,0.00
2018-09-15T00:30:50.893Z,0.00
2018-09-15T00:31:50.989Z,0.00
2018-09-15T00:32:51.084Z,0.00
2018-09-15T00:33:51.181Z,0.00
2018-09-15T00:34:51.285Z,0.00
2018-09-15T00:35:51.381Z,0.00
2018-09-15T00:36:51.474Z,0.00
2018-09-15T00:37:51.572Z,0.00
2018-09-15T00:38:51.675Z,0.00
2018-09-15T00:39:51.764Z,0.00
2018-09-15T00:40:51.861Z,0.00
2018-09-15T00:41:51.999Z,0.00
2018-09-15T00:42:52.053Z,0.00
2018-09-15T00:43:52.147Z,0.00
2018-09-15T00:44:52.241Z,0.00
2018-09-15T00:45:52.336Z,0.00
2018-09-15T00:46:52.431Z,0.00
2018-09-15T00:47:52.527Z,0.00
2018-09-15T00:48:52.621Z,0.00
2018-09-15T00:49:52.714Z,0.00
2018-09-15T00:50:52.808Z,0.00
2018-09-15T00:51:52.904Z,0.00
2018-09-15T00:52:53.000Z,0.00
2018-09-15T00:53:53.093Z,0.00
2018-09-15T00:54:53.188Z,0.00
2018-09-15T00:55:53.283Z,0.00
2018-09-15T00:56:53.384Z,0.00
2018-09-15T00:57:53.471Z,0.00
2018-09-15T00:58:53.565Z,0.00
2018-09-15T00:59:53.659Z,0.00
2018-09-15T01:00:53.757Z,0.00
2018-09-15T01:01:53.855Z,0.00
2018-09-15T01:02:53.944Z,0.00
2018-09-15T01:03:54.039Z,0.00
2018-09-15T01:04:54.132Z,0.00
2018-09-15T01:05:54.226Z,0.00
2018-09-15T01:06:54.321Z,0.00
2018-09-15T01:07:54.415Z,0.00
2018-09-15T01:08:54.511Z,0.00
2018-09-15T01:09:54.606Z,0.00
2018-09-15T01:10:54.699Z,0.00
2018-09-15T01:11:54.793Z,0.00
2018-09-15T01:12:54.888Z,0.00
2018-09-15T01:13:55.017Z,0.00
2018-09-15T01:14:55.075Z,0.00
2018-09-15T01:15:55.171Z,0.00
2018-09-15T01:16:55.265Z,0.00
2018-09-15T01:17:55.358Z,4.00
2018-09-15T01:18:55.463Z,0.00
2018-09-15T01:19:55.560Z,0.00
2018-09-15T01:20:55.652Z,0.00
2018-09-15T01:21:55.743Z,0.00
2018-09-15T01:22:55.835Z,0.00
2018-09-15T01:23:55.930Z,0.00
2018-09-15T01:24:56.025Z,0.00
2018-09-15T01:25:56.129Z,0.00
2018-09-15T01:26:56.214Z,0.00
2018-09-15T01:27:56.304Z,0.00
2018-09-15T01:28:56.396Z,0.00
2018-09-15T01:29:56.489Z,0.00
2018-09-15T01:30:56.585Z,0.00
2018-09-15T01:31:56.683Z,0.00
2018-09-15T01:32:56.780Z,0.00
2018-09-15T01:33:56.893Z,0.00
2018-09-15T01:34:56.984Z,0.00
2018-09-15T01:35:57.082Z,0.00
2018-09-15T01:36:57.174Z,0.00
2018-09-15T01:37:57.267Z,0.00
2018-09-15T01:38:57.360Z,0.00
2018-09-15T01:39:57.452Z,0.00
2018-09-15T01:40:57.546Z,0.00
2018-09-15T01:41:57.644Z,0.00
2018-09-15T01:42:57.739Z,0.00
2018-09-15T01:43:57.833Z,0.00
2018-09-15T01:44:57.930Z,0.00
2018-09-15T01:45:58.025Z,0.00
2018-09-15T01:46:58.121Z,0.00
2018-09-15T01:47:58.215Z,0.00
2018-09-15T01:48:58.307Z,0.00
2018-09-15T01:49:58.400Z,0.00
2018-09-15T01:50:58.496Z,0.00
2018-09-15T01:51:58.592Z,0.00
2018-09-15T01:52:58.684Z,0.00
2018-09-15T01:53:58.777Z,0.00
2018-09-15T01:54:58.872Z,0.00
2018-09-15T01:55:58.966Z,0.00
2018-09-15T01:56:59.062Z,0.00
2018-09-15T01:57:59.155Z,0.00
2018-09-15T01:58:59.250Z,0.00
2018-09-15T01:59:59.342Z,0.00
2018-09-15T02:00:59.434Z,0.00
2018-09-15T02:01:59.529Z,0.00
2018-09-15T02:02:59.621Z,0.00
2018-09-15T02:03:59.720Z,0.00
2018-09-15T02:04:59.814Z,0.00
2018-09-15T02:05:59.907Z,0.00
2018-09-15T02:07:00.000Z,0.00
2018-09-15T02:08:00.101Z,0.00
2018-09-15T02:09:00.192Z,0.00
2018-09-15T02:10:00.282Z,0.00
2018-09-15T02:11:00.399Z,0.00
2018-09-15T02:12:00.470Z,0.00
2018-09-15T02:13:00.569Z,0.00
2018-09-15T02:14:00.663Z,0.00
2018-09-15T02:15:00.757Z,0.00
2018-09-15T02:16:00.850Z,0.00
2018-09-15T02:17:00.944Z,0.00
2018-09-15T02:18:01.038Z,0.00
2018-09-15T02:19:01.132Z,0.00
2018-09-15T02:20:01.227Z,0.00
2018-09-15T02:21:01.318Z,0.00
2018-09-15T02:22:01.411Z,0.00
2018-09-15T02:23:01.540Z,0.00
2018-09-15T02:24:01.600Z,0.00
2018-09-15T02:25:01.694Z,0.00
2018-09-15T02:26:01.784Z,0.00
2018-09-15T02:27:01.877Z,0.00
2018-09-15T02:28:01.971Z,0.00
2018-09-15T02:29:02.099Z,0.00
2018-09-15T02:30:02.166Z,0.00
2018-09-15T02:31:02.256Z,0.00
2018-09-15T02:32:02.346Z,0.00
2018-09-15T02:33:02.441Z,0.00
2018-09-15T02:34:02.530Z,0.00
2018-09-15T02:35:02.625Z,0.00
2018-09-15T02:36:02.719Z,0.00
2018-09-15T02:37:02.810Z,0.00
2018-09-15T02:38:02.907Z,0.00
2018-09-15T02:39:03.012Z,0.00
2018-09-15T02:40:03.111Z,0.00
2018-09-15T02:41:03.197Z,0.00
2018-09-15T02:42:03.295Z,0.00
2018-09-15T02:43:03.386Z,0.00
2018-09-15T02:44:03.477Z,0.00
2018-09-15T02:45:03.571Z,0.00
2018-09-15T02:46:03.660Z,0.00
2018-09-15T02:47:03.763Z,0.00
2018-09-15T02:48:03.855Z,0.00
2018-09-15T02:49:03.946Z,0.00
2018-09-15T02:50:04.039Z,0.00
2018-09-15T02:51:04.132Z,0.00
2018-09-15T02:52:04.231Z,0.00
2018-09-15T02:53:04.327Z,0.00
2018-09-15T02:54:04.416Z,0.00
2018-09-15T02:55:04.512Z,0.00
2018-09-15T02:56:04.605Z,0.00
2018-09-15T02:57:04.709Z,0.00
2018-09-15T02:58:04.790Z,0.00
2018-09-15T02:59:04.886Z,0.00
2018-09-15T03:00:04.982Z,0.00
2018-09-15T03:01:05.071Z,0.00
2018-09-15T03:02:05.163Z,0.00
2018-09-15T03:03:05.257Z,0.00
2018-09-15T03:04:05.347Z,0.00
2018-09-15T03:05:05.442Z,0.00
2018-09-15T03:06:05.533Z,0.00
2018-09-15T03:07:05.633Z,0.00
2018-09-15T03:08:05.721Z,0.00
2018-09-15T03:09:05.816Z,0.00
2018-09-15T03:10:05.909Z,0.00
2018-09-15T03:11:06.003Z,0.00
2018-09-15T03:12:06.092Z,0.00
2018-09-15T03:13:06.183Z,0.00
2018-09-15T03:14:06.276Z,0.00
2018-09-15T03:15:06.367Z,0.00
2018-09-15T03:16:06.461Z,0.00
2018-09-15T03:17:06.558Z,0.00
2018-09-15T03:18:06.649Z,0.00
2018-09-15T03:19:06.741Z,0.00
2018-09-15T03:20:06.837Z,0.00
2018-09-15T03:21:06.930Z,0.00
2018-09-15T03:22:07.020Z,0.00
2018-09-15T03:23:07.122Z,0.00
2018-09-15T03:24:07.207Z,0.00
2018-09-15T03:25:07.301Z,0.00
2018-09-15T03:26:07.393Z,0.00
2018-09-15T03:27:07.485Z,0.00
2018-09-15T03:28:07.579Z,0.00
2018-09-15T03:29:07.670Z,0.00
2018-09-15T03:30:07.763Z,0.00
2018-09-15T03:31:07.856Z,0.00
2018-09-15T03:32:07.951Z,0.00
2018-09-15T03:33:08.043Z,0.00
2018-09-15T03:34:08.142Z,0.00
2018-09-15T03:35:08.235Z,0.00
2018-09-15T03:36:08.330Z,0.00
2018-09-15T03:37:08.421Z,0.00
2018-09-15T03:38:08.513Z,0.00
2018-09-15T03:39:08.607Z,0.00
2018-09-15T03:40:08.697Z,0.00
2018-09-15T03:41:08.795Z,0.00
2018-09-15T03:42:08.891Z,0.00
2018-09-15T03:43:08.979Z,0.00
2018-09-15T03:44:09.068Z,0.00
2018-09-15T03:45:09.184Z,0.00
2018-09-15T03:46:09.258Z,0.00
2018-09-15T03:47:09.350Z,0.00
2018-09-15T03:48:09.444Z,0.00
2018-09-15T03:49:09.535Z,0.00
2018-09-15T03:50:09.631Z,0.00
2018-09-15T03:51:09.729Z,0.00
2018-09-15T03:52:09.821Z,0.00
2018-09-15T03:53:09.916Z,0.00
2018-09-15T03:54:10.011Z,0.00
2018-09-15T03:55:10.101Z,0.00
2018-09-15T03:56:10.192Z,0.00
2018-09-15T03:57:10.293Z,0.00
2018-09-15T03:58:10.377Z,0.00
2018-09-15T03:59:10.470Z,0.00
2018-09-15T04:00:10.565Z,0.00
2018-09-15T04:01:10.652Z,0.00
2018-09-15T04:02:10.748Z,0.00
2018-09-15T04:03:10.857Z,0.00
2018-09-15T04:04:10.951Z,0.00
2018-09-15T04:05:11.043Z,0.00
2018-09-15T04:06:11.139Z,0.00
2018-09-15T04:07:11.229Z,0.00
2018-09-15T04:08:11.324Z,0.00
2018-09-15T04:09:11.416Z,0.00
2018-09-15T04:10:11.508Z,0.00
2018-09-15T04:11:11.606Z,0.00
2018-09-15T04:12:11.696Z,0.00
2018-09-15T04:13:11.784Z,0.00
2018-09-15T04:14:11.878Z,0.00
2018-09-15T04:15:11.968Z,0.00
2018-09-15T04:16:12.057Z,0.00
2018-09-15T04:17:12.153Z,0.00
2018-09-15T04:18:12.245Z,0.00
2018-09-15T04:19:12.337Z,0.00
2018-09-15T04:20:12.433Z,0.00
2018-09-15T04:21:12.525Z,0.00
2018-09-15T04:22:12.618Z,4.00
2018-09-15T04:23:12.709Z,4.00
2018-09-15T04:24:12.805Z,4.00
2018-09-15T04:25:12.895Z,4.00
2018-09-15T04:26:12.989Z,4.00
2018-09-15T04:27:13.084Z,4.00
2018-09-15T04:28:13.167Z,4.00
2018-09-15T04:29:13.263Z,4.00
2018-09-15T04:30:13.350Z,4.00
2018-09-15T04:31:13.445Z,8.00
2018-09-15T04:32:13.540Z,4.00
2018-09-15T04:33:13.633Z,8.00
2018-09-15T04:34:13.724Z,8.00
2018-09-15T04:35:13.816Z,8.00
2018-09-15T04:36:13.912Z,12.00
2018-09-15T04:37:14.005Z,16.00
2018-09-15T04:38:14.096Z,12.00
2018-09-15T04:39:14.189Z,16.00
2018-09-15T04:40:14.287Z,20.00
2018-09-15T04:41:14.376Z,24.00
2018-09-15T04:42:14.463Z,28.00
2018-09-15T04:43:14.559Z,32.00
2018-09-15T04:44:14.652Z,36.00
2018-09-15T04:45:14.751Z,44.00
2018-09-15T04:46:14.839Z,48.00
2018-09-15T04:47:14.931Z,60.00
2018-09-15T04:48:15.040Z,68.00
2018-09-15T04:49:15.134Z,80.00
2018-09-15T04:50:15.227Z,88.00
2018-09-15T04:51:15.318Z,96.00
2018-09-15T04:52:15.413Z,108.00
2018-09-15T04:53:15.505Z,116.00
2018-09-15T04:54:15.595Z,132.00
2018-09-15T04:55:15.689Z,144.00
2018-09-15T04:56:15.781Z,156.00
2018-09-15T04:57:15.871Z,172.00
2018-09-15T04:58:15.965Z,188.00
2018-09-15T04:59:16.063Z,204.00
2018-09-15T05:00:16.152Z,228.00
2018-09-15T05:01:16.247Z,256.00
2018-09-15T05:02:16.339Z,284.00
2018-09-15T05:03:16.434Z,320.00
2018-09-15T05:04:16.522Z,352.00
2018-09-15T05:05:16.623Z,388.00
2018-09-15T05:06:16.708Z,428.00
2018-09-15T05:07:16.798Z,460.00
2018-09-15T05:08:16.894Z,484.00
2018-09-15T05:09:16.985Z,508.00
2018-09-15T05:10:17.077Z,536.00
2018-09-15T05:11:17.172Z,568.00
2018-09-15T05:12:17.279Z,600.00
2018-09-15T05:13:17.359Z,632.00
2018-09-15T05:14:17.450Z,668.00
2018-09-15T05:15:17.543Z,700.00
2018-09-15T05:16:17.639Z,736.00
2018-09-15T05:17:17.728Z,768.00
2018-09-15T05:18:17.819Z,804.00
2018-09-15T05:19:17.915Z,836.00
2018-09-15T05:20:18.025Z,872.00
2018-09-15T05:21:18.115Z,904.00
2018-09-15T05:22:18.204Z,932.00
2018-09-15T05:23:18.312Z,956.00
2018-09-15T05:24:18.403Z,980.00
2018-09-15T05:25:18.501Z,1008.00
2018-09-15T05:26:18.587Z,1028.00
2018-09-15T05:27:18.680Z,1048.00
2018-09-15T05:28:18.773Z,1076.00
2018-09-15T05:29:18.868Z,1092.00
2018-09-15T05:30:18.961Z,1108.00
2018-09-15T05:31:19.059Z,1128.00
2018-09-15T05:32:19.145Z,1144.00
2018-09-15T05:33:19.240Z,1160.00
2018-09-15T05:34:19.330Z,1176.00
2018-09-15T05:35:19.423Z,1196.00
2018-09-15T05:36:19.517Z,1212.00
2018-09-15T05:37:19.608Z,1236.00
2018-09-15T05:38:19.703Z,1248.00
2018-09-15T05:39:19.797Z,1268.00
2018-09-15T05:40:19.887Z,1296.00
2018-09-15T05:41:19.983Z,1328.00
2018-09-15T05:42:20.072Z,1352.00
2018-09-15T05:43:20.165Z,1380.00
2018-09-15T05:44:20.256Z,1388.00
2018-09-15T05:45:20.348Z,1412.00
2018-09-15T05:46:20.447Z,1452.00
2018-09-15T05:47:20.537Z,1468.00
2018-09-15T05:48:20.629Z,1484.00
2018-09-15T05:49:20.722Z,1500.00
2018-09-15T05:50:20.816Z,1516.00
2018-09-15T05:51:20.908Z,1548.00
2018-09-15T05:52:21.002Z,1576.00
2018-09-15T05:53:21.098Z,1604.00
2018-09-15T05:54:21.179Z,1628.00
2018-09-15T05:55:21.272Z,1648.00
2018-09-15T05:56:21.371Z,1688.00
2018-09-15T05:57:21.460Z,1708.00
2018-09-15T05:58:21.582Z,1744.00
2018-09-15T05:59:21.649Z,1780.00
2018-09-15T06:00:21.760Z,1816.00
2018-09-15T06:01:21.830Z,1840.00
2018-09-15T06:02:21.923Z,1876.00
2018-09-15T06:03:22.018Z,1912.00
2018-09-15T06:04:22.113Z,1928.00
2018-09-15T06:05:22.195Z,1952.00
2018-09-15T06:06:22.291Z,1972.00
2018-09-15T06:07:22.386Z,2044.00
2018-09-15T06:08:22.476Z,2060.00
2018-09-15T06:09:22.567Z,2080.00
2018-09-15T06:10:22.665Z,2108.00
2018-09-15T06:11:22.754Z,2140.00
2018-09-15T06:12:22.848Z,2184.00
2018-09-15T06:13:22.942Z,2212.00
2018-09-15T06:14:23.032Z,2236.00
2018-09-15T06:15:23.125Z,2280.00
2018-09-15T06:16:23.219Z,2272.00
2018-09-15T06:17:23.313Z,2288.00
2018-09-15T06:18:23.405Z,2312.00
2018-09-15T06:19:23.499Z,2352.00
2018-09-15T06:20:23.592Z,2480.00
2018-09-15T06:21:23.686Z,3316.00
2018-09-15T06:22:23.780Z,6280.00
2018-09-15T06:23:23.872Z,9392.00
2018-09-15T06:24:23.965Z,9868.00
2018-09-15T06:25:24.061Z,9620.00
2018-09-15T06:26:24.145Z,9048.00
2018-09-15T06:27:24.237Z,8560.00
2018-09-15T06:28:24.337Z,8228.00
2018-09-15T06:29:24.428Z,8728.00
2018-09-15T06:30:24.521Z,7808.00
2018-09-15T06:31:24.629Z,7152.00
2018-09-15T06:32:24.728Z,7200.00
2018-09-15T06:33:24.816Z,7204.00
2018-09-15T06:34:24.909Z,5124.00
2018-09-15T06:35:25.004Z,6212.00
2018-09-15T06:36:25.142Z,5968.00
2018-09-15T06:37:25.193Z,4892.00
2018-09-15T06:38:25.277Z,5156.00
2018-09-15T06:39:25.436Z,5256.00
2018-09-15T06:40:25.478Z,5024.00
2018-09-15T06:41:25.577Z,6728.00
2018-09-15T06:42:25.670Z,6180.00
2018-09-15T06:43:25.769Z,6260.00
2018-09-15T06:44:25.861Z,6180.00
2018-09-15T06:45:25.971Z,5848.00
2018-09-15T06:46:26.052Z,5256.00
2018-09-15T06:47:26.149Z,4884.00
2018-09-15T06:48:26.242Z,4748.00
2018-09-15T06:49:26.339Z,6092.00
2018-09-15T06:50:26.435Z,5920.00
2018-09-15T06:51:26.536Z,5548.00
2018-09-15T06:52:26.624Z,5104.00
2018-09-15T06:53:26.719Z,5264.00
2018-09-15T06:54:26.814Z,4956.00
2018-09-15T06:55:26.906Z,5132.00
2018-09-15T06:56:27.010Z,5148.00
2018-09-15T06:57:27.110Z,5108.00
2018-09-15T06:58:27.197Z,4868.00
2018-09-15T06:59:27.291Z,4040.00
2018-09-15T07:00:27.387Z,3996.00
2018-09-15T07:01:27.485Z,3940.00
2018-09-15T07:02:27.578Z,3752.00
2018-09-15T07:03:27.673Z,3696.00
2018-09-15T07:04:27.790Z,3696.00
2018-09-15T07:05:27.881Z,3640.00
2018-09-15T07:06:27.978Z,3596.00
2018-09-15T07:07:28.079Z,3580.00
2018-09-15T07:08:28.171Z,3596.00
2018-09-15T07:09:28.265Z,3520.00
2018-09-15T07:10:28.362Z,3496.00
2018-09-15T07:11:28.467Z,3420.00
2018-09-15T07:12:28.556Z,3300.00
2018-09-15T07:13:28.651Z,3168.00
2018-09-15T07:14:28.744Z,3180.00
2018-09-15T07:15:28.843Z,3296.00
2018-09-15T07:16:28.936Z,3256.00
2018-09-15T07:17:29.033Z,3508.00
2018-09-15T07:18:29.129Z,3584.00
2018-09-15T07:19:29.220Z,3584.00
2018-09-15T07:20:29.316Z,3564.00
2018-09-15T07:21:29.411Z,3552.00
2018-09-15T07:22:29.507Z,3584.00
2018-09-15T07:23:29.605Z,3588.00
2018-09-15T07:24:29.699Z,3584.00
2018-09-15T07:25:29.794Z,3568.00
2018-09-15T07:26:29.890Z,3580.00
2018-09-15T07:27:29.984Z,3500.00
2018-09-15T07:28:30.083Z,3468.00
2018-09-15T07:29:30.178Z,3540.00
2018-09-15T07:30:30.277Z,3536.00
2018-09-15T07:31:30.377Z,3540.00
2018-09-15T07:32:30.457Z,3548.00
2018-09-15T07:33:30.553Z,3528.00
2018-09-15T07:34:30.648Z,3580.00
2018-09-15T07:35:30.744Z,3572.00
2018-09-15T07:36:30.839Z,3576.00
2018-09-15T07:37:30.974Z,3628.00
2018-09-15T07:38:31.041Z,3632.00
2018-09-15T07:39:31.137Z,3664.00
2018-09-15T07:40:31.234Z,3656.00
2018-09-15T07:41:31.329Z,3664.00
2018-09-15T07:42:31.455Z,3680.00
2018-09-15T07:43:31.544Z,3708.00
2018-09-15T07:44:31.660Z,3788.00
2018-09-15T07:45:31.756Z,3744.00
2018-09-15T07:46:31.850Z,3752.00
2018-09-15T07:47:31.945Z,3736.00
2018-09-15T07:48:32.042Z,3720.00
2018-09-15T07:49:32.138Z,3756.00
2018-09-15T07:50:32.232Z,3788.00
2018-09-15T07:51:32.388Z,3764.00
2018-09-15T07:52:32.426Z,3868.00
2018-09-15T07:53:32.526Z,3820.00
2018-09-15T07:54:32.618Z,3808.00
2018-09-15T07:55:32.716Z,3836.00
2018-09-15T07:56:32.811Z,3852.00
2018-09-15T07:57:32.983Z,3788.00
2018-09-15T07:58:33.003Z,3872.00
2018-09-15T07:59:33.098Z,3884.00
2018-09-15T08:00:33.195Z,3864.00
2018-09-15T08:01:33.291Z,3868.00
2018-09-15T08:02:33.384Z,3848.00
2018-09-15T08:03:33.484Z,3900.00
2018-09-15T08:04:33.592Z,4100.00
2018-09-15T08:05:33.687Z,3904.00
2018-09-15T08:06:33.787Z,3936.00
2018-09-15T08:07:33.885Z,3892.00
2018-09-15T08:08:33.978Z,3932.00
2018-09-15T08:09:34.074Z,3980.00
2018-09-15T08:10:34.279Z,4024.00
2018-09-15T08:11:34.257Z,4020.00
2018-09-15T08:12:34.347Z,4028.00
2018-09-15T08:13:34.444Z,4036.00
2018-09-15T08:14:34.543Z,4000.00
2018-09-15T08:15:34.638Z,4008.00
2018-09-15T08:16:34.733Z,4024.00
2018-09-15T08:17:34.829Z,4056.00
2018-09-15T08:18:34.927Z,4088.00
2018-09-15T08:19:35.023Z,4068.00
2018-09-15T08:20:35.128Z,4092.00
2018-09-15T08:21:35.214Z,4044.00
2018-09-15T08:22:35.326Z,4108.00
2018-09-15T08:23:35.421Z,4184.00
2018-09-15T08:24:35.532Z,4124.00
2018-09-15T08:25:35.630Z,4004.00
2018-09-15T08:26:35.791Z,4044.00
2018-09-15T08:27:35.825Z,4076.00
2018-09-15T08:28:35.923Z,4132.00
2018-09-15T08:29:36.017Z,4136.00
2018-09-15T08:30:36.116Z,4064.00
2018-09-15T08:31:36.211Z,4124.00
2018-09-15T08:32:36.308Z,4112.00
2018-09-15T08:33:36.404Z,4096.00
2018-09-15T08:34:36.501Z,4140.00
2018-09-15T08:35:36.596Z,4192.00
2018-09-15T08:36:36.692Z,4064.00
2018-09-15T08:37:36.800Z,4108.00
2018-09-15T08:38:36.881Z,4224.00
2018-09-15T08:39:36.977Z,4228.00
2018-09-15T08:40:37.074Z,4136.00
2018-09-15T08:41:37.171Z,4208.00
2018-09-15T08:42:37.272Z,4220.00
2018-09-15T08:43:37.365Z,4248.00
2018-09-15T08:44:37.473Z,4176.00
2018-09-15T08:45:37.568Z,4300.00
2018-09-15T08:46:37.667Z,4232.00
2018-09-15T08:47:37.764Z,3888.00
2018-09-15T08:48:37.864Z,3816.00
2018-09-15T08:49:37.959Z,4364.00
2018-09-15T08:50:38.059Z,4264.00
2018-09-15T08:51:38.152Z,2264.00
2018-09-15T08:52:38.251Z,2752.00
2018-09-15T08:53:38.348Z,2912.00
2018-09-15T08:54:38.444Z,4484.00
2018-09-15T08:55:38.546Z,3956.00
2018-09-15T08:56:38.647Z,2724.00
2018-09-15T08:57:38.740Z,4892.00
2018-09-15T08:58:38.842Z,5800.00
2018-09-15T08:59:38.934Z,5136.00
2018-09-15T09:00:39.031Z,5076.00
2018-09-15T09:01:39.131Z,5128.00
2018-09-15T09:02:39.227Z,5064.00
2018-09-15T09:03:39.358Z,5192.00
2018-09-15T09:04:39.420Z,4164.00
2018-09-15T09:05:39.520Z,5496.00
2018-09-15T09:06:39.617Z,4016.00
2018-09-15T09:07:39.713Z,4548.00
2018-09-15T09:08:39.812Z,4396.00
2018-09-15T09:09:39.907Z,5592.00
2018-09-15T09:10:40.005Z,5888.00
2018-09-15T09:11:40.124Z,4148.00
2018-09-15T09:12:40.219Z,5820.00
2018-09-15T09:13:40.320Z,5948.00
2018-09-15T09:14:40.416Z,5636.00
2018-09-15T09:15:40.512Z,4840.00
2018-09-15T09:16:40.616Z,4668.00
2018-09-15T09:17:40.709Z,5296.00
2018-09-15T09:18:40.806Z,3480.00
2018-09-15T09:19:40.904Z,3912.00
2018-09-15T09:20:41.002Z,5680.00
2018-09-15T09:21:41.099Z,6480.00
2018-09-15T09:22:41.198Z,5684.00
2018-09-15T09:23:41.294Z,3992.00
2018-09-15T09:24:41.393Z,4788.00
2018-09-15T09:25:41.517Z,5532.00
2018-09-15T09:26:41.672Z,3080.00
2018-09-15T09:27:41.692Z,2952.00
2018-09-15T09:28:41.786Z,2888.00
2018-09-15T09:29:41.884Z,5180.00
2018-09-15T09:30:41.979Z,3092.00
2018-09-15T09:31:42.082Z,3080.00
2018-09-15T09:32:42.177Z,4880.00
2018-09-15T09:33:42.272Z,5556.00
2018-09-15T09:34:42.371Z,5536.00
2018-09-15T09:35:42.472Z,5456.00
2018-09-15T09:36:42.567Z,5312.00
2018-09-15T09:37:42.664Z,3848.00
2018-09-15T09:38:42.769Z,2640.00
2018-09-15T09:39:42.869Z,2852.00
2018-09-15T09:40:42.965Z,3860.00
2018-09-15T09:41:51.719Z,2624.00
2018-09-15T09:42:43.192Z,4516.00
2018-09-15T09:43:43.292Z,2656.00
2018-09-15T09:44:43.407Z,2696.00
2018-09-15T09:45:43.510Z,2708.00
2018-09-15T09:46:43.600Z,2744.00
2018-09-15T09:47:43.700Z,3008.00
2018-09-15T09:48:43.797Z,2800.00
2018-09-15T09:49:43.898Z,2736.00
2018-09-15T09:50:43.993Z,2792.00
2018-09-15T09:51:44.101Z,5112.00
2018-09-15T09:52:44.187Z,5576.00
2018-09-15T09:53:44.289Z,5672.00
2018-09-15T09:54:44.385Z,5844.00
2018-09-15T09:55:44.484Z,5888.00
2018-09-15T09:56:44.580Z,6008.00
2018-09-15T09:57:44.681Z,6320.00
2018-09-15T09:58:44.781Z,6640.00
2018-09-15T09:59:44.883Z,6128.00
2018-09-15T10:00:44.979Z,4380.00
2018-09-15T10:01:45.073Z,4008.00
2018-09-15T10:02:45.173Z,3984.00
2018-09-15T10:03:45.271Z,6568.00
2018-09-15T10:04:45.366Z,4552.00
2018-09-15T10:05:45.463Z,4496.00
2018-09-15T10:06:45.562Z,4692.00
2018-09-15T10:07:45.661Z,4516.00
2018-09-15T10:08:45.762Z,4440.00
2018-09-15T10:09:45.862Z,4864.00
2018-09-15T10:10:45.957Z,6736.00
2018-09-15T10:11:46.056Z,6684.00
2018-09-15T10:12:46.154Z,5660.00
2018-09-15T10:13:46.254Z,4228.00
2018-09-15T10:14:46.399Z,6516.00
2018-09-15T10:15:46.558Z,4936.00
2018-09-15T10:16:46.593Z,3888.00
2018-09-15T10:17:46.691Z,5816.00
2018-09-15T10:18:46.786Z,5628.00
2018-09-15T10:19:46.884Z,3072.00
2018-09-15T10:20:46.987Z,2944.00
2018-09-15T10:21:47.110Z,3028.00
2018-09-15T10:22:47.185Z,3092.00
2018-09-15T10:23:47.284Z,3216.00
2018-09-15T10:24:47.383Z,3388.00
2018-09-15T10:25:47.480Z,3480.00
2018-09-15T10:26:47.585Z,3988.00
2018-09-15T10:27:47.677Z,6112.00
2018-09-15T10:28:47.775Z,4052.00
2018-09-15T10:29:47.892Z,4160.00
2018-09-15T10:30:47.993Z,3776.00
2018-09-15T10:31:48.093Z,3780.00
2018-09-15T10:32:48.197Z,3816.00
2018-09-15T10:33:48.292Z,3816.00
2018-09-15T10:34:48.388Z,3724.00
2018-09-15T10:35:48.492Z,3612.00
2018-09-15T10:36:48.611Z,3548.00
2018-09-15T10:37:48.706Z,3548.00
2018-09-15T10:38:48.807Z,3532.00
2018-09-15T10:39:48.904Z,3580.00
2018-09-15T10:40:49.014Z,3664.00
2018-09-15T10:41:49.114Z,4132.00
2018-09-15T10:42:49.207Z,3972.00
2018-09-15T10:43:49.321Z,3872.00
2018-09-15T10:44:49.419Z,3820.00
2018-09-15T10:45:49.523Z,3832.00
2018-09-15T10:46:49.615Z,3872.00
2018-09-15T10:47:49.716Z,3868.00
2018-09-15T10:48:49.812Z,3848.00
2018-09-15T10:49:49.911Z,6140.00
2018-09-15T10:50:50.012Z,4044.00
2018-09-15T10:51:50.107Z,4032.00
2018-09-15T10:52:50.213Z,4024.00
2018-09-15T10:53:50.304Z,4092.00
2018-09-15T10:54:50.405Z,4064.00
2018-09-15T10:55:50.507Z,6596.00
2018-09-15T10:56:50.604Z,6400.00
2018-09-15T10:57:50.703Z,3952.00
2018-09-15T10:58:50.837Z,3908.00
2018-09-15T10:59:50.898Z,3896.00
2018-09-15T11:00:51.013Z,3876.00
2018-09-15T11:01:51.094Z,3836.00
2018-09-15T11:02:51.195Z,3836.00
2018-09-15T11:03:51.291Z,3912.00
2018-09-15T11:04:51.392Z,3988.00
2018-09-15T11:05:51.549Z,3996.00
2018-09-15T11:06:51.577Z,4080.00
2018-09-15T11:07:51.683Z,4228.00
2018-09-15T11:08:51.782Z,6416.00
2018-09-15T11:09:52.276Z,5240.00
2018-09-15T11:10:51.995Z,6796.00
2018-09-15T11:11:52.096Z,4396.00
2018-09-15T11:12:52.299Z,4496.00
2018-09-15T11:13:52.438Z,6616.00
2018-09-15T11:14:52.356Z,4216.00
2018-09-15T11:15:52.579Z,4036.00
2018-09-15T11:16:52.547Z,3992.00
2018-09-15T11:17:52.646Z,4072.00
2018-09-15T11:18:52.803Z,4248.00
2018-09-15T11:19:52.878Z,4380.00
2018-09-15T11:20:52.980Z,4460.00
2018-09-15T11:21:53.072Z,4440.00
2018-09-15T11:22:53.230Z,4432.00
2018-09-15T11:23:53.273Z,4368.00
2018-09-15T11:24:53.373Z,4356.00
2018-09-15T11:25:53.473Z,4272.00
2018-09-15T11:26:53.572Z,4156.00
2018-09-15T11:27:53.669Z,4040.00
2018-09-15T11:28:53.814Z,3936.00
2018-09-15T11:29:53.872Z,3868.00
2018-09-15T11:30:53.973Z,3940.00
2018-09-15T11:31:54.077Z,3972.00
2018-09-15T11:32:54.173Z,3996.00
2018-09-15T11:33:54.279Z,3952.00
2018-09-15T11:34:54.374Z,3920.00
2018-09-15T11:35:54.478Z,3940.00
2018-09-15T11:36:54.626Z,4040.00
2018-09-15T11:37:54.684Z,4124.00
2018-09-15T11:38:54.727Z,4228.00
2018-09-15T11:39:54.826Z,4300.00
2018-09-15T11:40:54.925Z,4336.00
2018-09-15T11:41:55.029Z,4392.00
2018-09-15T11:42:55.119Z,4580.00
2018-09-15T11:43:55.223Z,4760.00
2018-09-15T11:44:55.336Z,4972.00
2018-09-15T11:45:55.437Z,5136.00
2018-09-15T11:46:55.536Z,5196.00
2018-09-15T11:47:55.703Z,5292.00
2018-09-15T11:48:55.735Z,5388.00
2018-09-15T11:49:55.831Z,5560.00
2018-09-15T11:50:55.932Z,7224.00
2018-09-15T11:51:56.030Z,8408.00
2018-09-15T11:52:56.219Z,9320.00
2018-09-15T11:53:56.244Z,9364.00
2018-09-15T11:54:56.312Z,9468.00
2018-09-15T11:55:56.412Z,9404.00
2018-09-15T11:56:56.506Z,9256.00
2018-09-15T11:57:56.604Z,6432.00
2018-09-15T11:58:56.698Z,6104.00
2018-09-15T11:59:56.857Z,5952.00
2018-09-15T12:00:56.902Z,5632.00
2018-09-15T12:01:57.045Z,5544.00
2018-09-15T12:02:57.101Z,5536.00
2018-09-15T12:03:57.201Z,5596.00
2018-09-15T12:04:57.300Z,5964.00
2018-09-15T12:05:57.394Z,8760.00
2018-09-15T12:06:57.495Z,8212.00
2018-09-15T12:07:57.656Z,8880.00
2018-09-15T12:08:57.692Z,7452.00
2018-09-15T12:09:57.793Z,6280.00
2018-09-15T12:10:57.890Z,6276.00
2018-09-15T12:11:57.993Z,6376.00
2018-09-15T12:12:58.099Z,6296.00
2018-09-15T12:13:58.203Z,6208.00
2018-09-15T12:14:58.298Z,6116.00
2018-09-15T12:16:06.235Z,6172.00
2018-09-15T12:17:08.116Z,6212.00
2018-09-15T12:17:58.587Z,6224.00
2018-09-15T12:18:58.709Z,6196.00
2018-09-15T12:19:58.811Z,6212.00
2018-09-15T12:20:58.907Z,6332.00
2018-09-15T12:21:59.008Z,6444.00
2018-09-15T12:22:59.109Z,6548.00
2018-09-15T12:23:59.212Z,6784.00
2018-09-15T12:24:59.308Z,6900.00
2018-09-15T12:25:59.418Z,7244.00
2018-09-15T12:26:59.515Z,7760.00
2018-09-15T12:27:59.684Z,8640.00
2018-09-15T12:28:59.714Z,7340.00
2018-09-15T12:29:59.810Z,7616.00
2018-09-15T12:30:59.911Z,7440.00
2018-09-15T12:32:00.007Z,7720.00
2018-09-15T12:33:00.109Z,9192.00
2018-09-15T12:34:00.211Z,7136.00